METAR Data
IDs: Format: Raw Decoded Include TAF

Data at: 1836 UTC 26 Sep 2021

ESTL 261820Z AUTO 13007KT 9999 OVC053/// 14/13 Q1020